Lower Kalskag, Alaska
Current Conditions -  °F | °C
As of 2:08 PM on Monday 20 Oct 2014 (Local Time) from PALG Reporting Station
Unknown Precip Unknown Precip  
Wind Chill: 23°   Ceiling: 300
Heat Index: 28°   Visibility: 2.5mi
Dew Point: 23°   Wind: 5mph
Humidity: 80%   Direction: NA
Pressure: 29.15"   Gusts: NA
Location:  61.52°N, 160.38°W
Report Text: PALG 202208Z AUTO VRB04KT 2 1/2SM UP BKN003 BKN013 OVC055 M02/M05 A2915 RMK AO2 TSNO BKN V SCT P0000 $
Loading
Personal Weather Stations






























Interactive Weather Map
Tropical Storm Tracking
New forecast layout! Learn more

10-Day Weather Forecast

Advertisements
Track Severe Weather on mobile